sensor_id;sensor_type;location;lat;lon;timestamp;temperature;humidity
4739;DHT22;2383;48.632;10.156;2023-04-06T00:02:51;0.40;75.20
4739;DHT22;2383;48.632;10.156;2023-04-06T00:06:54;0.50;74.70
4739;DHT22;2383;48.632;10.156;2023-04-06T00:10:56;0.40;75.30
4739;DHT22;2383;48.632;10.156;2023-04-06T00:14:58;0.40;75.40
4739;DHT22;2383;48.632;10.156;2023-04-06T00:18:59;0.10;76.50
4739;DHT22;2383;48.632;10.156;2023-04-06T00:23:02;0.10;76.60
4739;DHT22;2383;48.632;10.156;2023-04-06T00:27:03;-0.20;75.80
4739;DHT22;2383;48.632;10.156;2023-04-06T00:31:06;-0.40;76.80
4739;DHT22;2383;48.632;10.156;2023-04-06T00:35:08;-0.20;77.00
4739;DHT22;2383;48.632;10.156;2023-04-06T00:39:11;-0.10;76.80
4739;DHT22;2383;48.632;10.156;2023-04-06T00:43:13;-0.10;76.30
4739;DHT22;2383;48.632;10.156;2023-04-06T00:47:15;0.00;76.00
4739;DHT22;2383;48.632;10.156;2023-04-06T00:51:17;-0.20;75.50
4739;DHT22;2383;48.632;10.156;2023-04-06T00:55:19;-0.30;76.00
4739;DHT22;2383;48.632;10.156;2023-04-06T00:59:21;-0.30;76.30
4739;DHT22;2383;48.632;10.156;2023-04-06T01:03:24;-0.50;76.70
4739;DHT22;2383;48.632;10.156;2023-04-06T01:07:26;-0.50;77.30
4739;DHT22;2383;48.632;10.156;2023-04-06T01:11:39;-0.70;76.70
4739;DHT22;2383;48.632;10.156;2023-04-06T01:15:46;-0.70;76.90
4739;DHT22;2383;48.632;10.156;2023-04-06T01:19:54;-0.60;77.70
4739;DHT22;2383;48.632;10.156;2023-04-06T01:24:03;-0.50;77.40
4739;DHT22;2383;48.632;10.156;2023-04-06T01:28:16;-0.40;76.50
4739;DHT22;2383;48.632;10.156;2023-04-06T01:32:36;-0.30;76.00
4739;DHT22;2383;48.632;10.156;2023-04-06T01:36:39;-0.30;76.30
4739;DHT22;2383;48.632;10.156;2023-04-06T01:40:54;-0.40;76.60
4739;DHT22;2383;48.632;10.156;2023-04-06T01:44:59;-0.50;76.50
4739;DHT22;2383;48.632;10.156;2023-04-06T01:49:01;-0.60;77.30
4739;DHT22;2383;48.632;10.156;2023-04-06T01:53:11;-0.60;77.20
4739;DHT22;2383;48.632;10.156;2023-04-06T01:57:16;-0.60;76.90
4739;DHT22;2383;48.632;10.156;2023-04-06T02:01:26;-0.70;76.30
4739;DHT22;2383;48.632;10.156;2023-04-06T02:05:32;-0.70;76.50
4739;DHT22;2383;48.632;10.156;2023-04-06T02:09:54;-0.80;76.90
4739;DHT22;2383;48.632;10.156;2023-04-06T02:14:05;-0.90;76.70
4739;DHT22;2383;48.632;10.156;2023-04-06T02:18:13;-0.80;76.40
4739;DHT22;2383;48.632;10.156;2023-04-06T02:22:15;-0.90;77.30
4739;DHT22;2383;48.632;10.156;2023-04-06T02:26:17;-1.00;77.20
4739;DHT22;2383;48.632;10.156;2023-04-06T02:30:19;-1.00;77.50
4739;DHT22;2383;48.632;10.156;2023-04-06T02:34:22;-1.10;77.00
4739;DHT22;2383;48.632;10.156;2023-04-06T02:38:26;-0.90;77.60
4739;DHT22;2383;48.632;10.156;2023-04-06T02:42:28;-0.80;77.50
4739;DHT22;2383;48.632;10.156;2023-04-06T02:46:30;-0.90;77.30
4739;DHT22;2383;48.632;10.156;2023-04-06T02:50:32;-1.20;77.10
4739;DHT22;2383;48.632;10.156;2023-04-06T02:54:38;-1.20;77.70
4739;DHT22;2383;48.632;10.156;2023-04-06T02:58:40;-0.90;77.80
4739;DHT22;2383;48.632;10.156;2023-04-06T03:02:42;-0.90;77.30
4739;DHT22;2383;48.632;10.156;2023-04-06T03:06:49;-1.00;76.80
4739;DHT22;2383;48.632;10.156;2023-04-06T03:11:01;-1.30;77.00
4739;DHT22;2383;48.632;10.156;2023-04-06T03:15:10;-1.10;77.20
4739;DHT22;2383;48.632;10.156;2023-04-06T03:19:17;-1.30;77.80
4739;DHT22;2383;48.632;10.156;2023-04-06T03:23:19;-1.30;76.90
4739;DHT22;2383;48.632;10.156;2023-04-06T03:27:26;-1.40;77.50
4739;DHT22;2383;48.632;10.156;2023-04-06T03:31:30;-1.40;77.60
4739;DHT22;2383;48.632;10.156;2023-04-06T03:35:41;-1.40;77.00
4739;DHT22;2383;48.632;10.156;2023-04-06T03:39:43;-1.50;77.70
4739;DHT22;2383;48.632;10.156;2023-04-06T03:43:52;-1.60;78.00
4739;DHT22;2383;48.632;10.156;2023-04-06T03:47:54;-1.60;78.60
4739;DHT22;2383;48.632;10.156;2023-04-06T03:51:56;-1.50;77.80
4739;DHT22;2383;48.632;10.156;2023-04-06T03:55:59;-1.60;78.10
4739;DHT22;2383;48.632;10.156;2023-04-06T04:00:04;-1.70;78.80
4739;DHT22;2383;48.632;10.156;2023-04-06T04:04:13;-1.60;78.60
4739;DHT22;2383;48.632;10.156;2023-04-06T04:08:15;-1.50;78.00
4739;DHT22;2383;48.632;10.156;2023-04-06T04:12:17;-1.70;77.80
4739;DHT22;2383;48.632;10.156;2023-04-06T04:16:19;-1.70;77.20
4739;DHT22;2383;48.632;10.156;2023-04-06T04:20:21;-1.80;77.40
4739;DHT22;2383;48.632;10.156;2023-04-06T04:24:24;-1.80;78.40
4739;DHT22;2383;48.632;10.156;2023-04-06T04:28:26;-1.70;78.10
4739;DHT22;2383;48.632;10.156;2023-04-06T04:32:30;-1.80;78.10
4739;DHT22;2383;48.632;10.156;2023-04-06T04:36:35;-1.80;78.00
4739;DHT22;2383;48.632;10.156;2023-04-06T04:40:40;-1.70;78.00
4739;DHT22;2383;48.632;10.156;2023-04-06T04:44:45;-1.80;78.80
4739;DHT22;2383;48.632;10.156;2023-04-06T04:48:48;-1.80;78.70
4739;DHT22;2383;48.632;10.156;2023-04-06T04:52:50;-1.80;77.70
4739;DHT22;2383;48.632;10.156;2023-04-06T04:56:58;-1.90;77.70
4739;DHT22;2383;48.632;10.156;2023-04-06T05:01:14;-2.10;78.30
4739;DHT22;2383;48.632;10.156;2023-04-06T05:05:17;-2.10;78.10
4739;DHT22;2383;48.632;10.156;2023-04-06T05:09:19;-2.10;78.40
4739;DHT22;2383;48.632;10.156;2023-04-06T05:13:22;-2.00;78.00
4739;DHT22;2383;48.632;10.156;2023-04-06T05:17:25;-1.90;78.00
4739;DHT22;2383;48.632;10.156;2023-04-06T05:21:29;-2.10;78.70
4739;DHT22;2383;48.632;10.156;2023-04-06T05:25:36;-2.20;79.40
4739;DHT22;2383;48.632;10.156;2023-04-06T05:29:48;-2.40;79.90
4739;DHT22;2383;48.632;10.156;2023-04-06T05:33:51;-2.30;80.20
4739;DHT22;2383;48.632;10.156;2023-04-06T05:38:08;-2.20;80.00
4739;DHT22;2383;48.632;10.156;2023-04-06T05:42:11;-2.00;80.10
4739;DHT22;2383;48.632;10.156;2023-04-06T05:46:24;-2.00;80.40
4739;DHT22;2383;48.632;10.156;2023-04-06T05:50:28;-2.10;81.50
4739;DHT22;2383;48.632;10.156;2023-04-06T05:54:32;-2.00;81.70
4739;DHT22;2383;48.632;10.156;2023-04-06T05:58:36;-2.00;82.10
4739;DHT22;2383;48.632;10.156;2023-04-06T06:02:39;-1.70;81.70
4739;DHT22;2383;48.632;10.156;2023-04-06T06:06:49;-1.50;81.60
4739;DHT22;2383;48.632;10.156;2023-04-06T06:10:54;-1.40;81.50
4739;DHT22;2383;48.632;10.156;2023-04-06T06:14:58;-1.10;80.50
4739;DHT22;2383;48.632;10.156;2023-04-06T06:19:02;-1.00;80.90
4739;DHT22;2383;48.632;10.156;2023-04-06T06:23:05;-0.90;81.40
4739;DHT22;2383;48.632;10.156;2023-04-06T06:27:08;-0.90;81.50
4739;DHT22;2383;48.632;10.156;2023-04-06T06:31:12;-0.90;81.50
4739;DHT22;2383;48.632;10.156;2023-04-06T06:35:15;-0.90;81.60
4739;DHT22;2383;48.632;10.156;2023-04-06T06:39:17;-0.90;82.00
4739;DHT22;2383;48.632;10.156;2023-04-06T06:43:19;-0.80;82.50
4739;DHT22;2383;48.632;10.156;2023-04-06T06:47:33;-0.30;82.20
4739;DHT22;2383;48.632;10.156;2023-04-06T06:51:35;-0.10;81.40
4739;DHT22;2383;48.632;10.156;2023-04-06T06:55:37;0.10;81.10
4739;DHT22;2383;48.632;10.156;2023-04-06T06:59:39;0.30;80.80
4739;DHT22;2383;48.632;10.156;2023-04-06T07:03:42;0.20;81.40
4739;DHT22;2383;48.632;10.156;2023-04-06T07:07:44;0.50;80.80
4739;DHT22;2383;48.632;10.156;2023-04-06T07:11:46;0.70;80.30
4739;DHT22;2383;48.632;10.156;2023-04-06T07:15:50;0.80;80.10
4739;DHT22;2383;48.632;10.156;2023-04-06T07:19:52;1.00;79.60
4739;DHT22;2383;48.632;10.156;2023-04-06T07:23:54;1.00;79.30
4739;DHT22;2383;48.632;10.156;2023-04-06T07:27:56;1.20;79.60
4739;DHT22;2383;48.632;10.156;2023-04-06T07:31:59;1.30;80.00
4739;DHT22;2383;48.632;10.156;2023-04-06T07:36:01;1.40;79.90
4739;DHT22;2383;48.632;10.156;2023-04-06T07:40:04;1.60;79.70
4739;DHT22;2383;48.632;10.156;2023-04-06T07:44:07;1.60;80.20
4739;DHT22;2383;48.632;10.156;2023-04-06T07:48:09;1.80;79.80
4739;DHT22;2383;48.632;10.156;2023-04-06T07:52:12;2.00;78.90
4739;DHT22;2383;48.632;10.156;2023-04-06T07:56:15;2.20;79.50
4739;DHT22;2383;48.632;10.156;2023-04-06T08:00:18;2.40;78.90
4739;DHT22;2383;48.632;10.156;2023-04-06T08:04:20;2.60;79.00
4739;DHT22;2383;48.632;10.156;2023-04-06T08:08:22;2.70;78.00
4739;DHT22;2383;48.632;10.156;2023-04-06T08:12:24;2.70;75.60
4739;DHT22;2383;48.632;10.156;2023-04-06T08:16:26;2.80;76.60
4739;DHT22;2383;48.632;10.156;2023-04-06T08:20:28;3.00;76.00
4739;DHT22;2383;48.632;10.156;2023-04-06T08:24:31;3.20;75.70
4739;DHT22;2383;48.632;10.156;2023-04-06T08:28:34;3.20;76.40
4739;DHT22;2383;48.632;10.156;2023-04-06T08:32:36;3.40;76.90
4739;DHT22;2383;48.632;10.156;2023-04-06T08:36:38;3.60;75.30
4739;DHT22;2383;48.632;10.156;2023-04-06T08:40:40;3.50;75.90
4739;DHT22;2383;48.632;10.156;2023-04-06T08:44:45;3.70;76.30
4739;DHT22;2383;48.632;10.156;2023-04-06T08:48:48;4.00;72.40
4739;DHT22;2383;48.632;10.156;2023-04-06T08:52:53;3.90;72.10
4739;DHT22;2383;48.632;10.156;2023-04-06T08:56:56;4.10;72.50
4739;DHT22;2383;48.632;10.156;2023-04-06T09:00:59;4.10;71.20
4739;DHT22;2383;48.632;10.156;2023-04-06T09:05:02;4.20;73.80
4739;DHT22;2383;48.632;10.156;2023-04-06T09:09:04;4.60;73.30
4739;DHT22;2383;48.632;10.156;2023-04-06T09:13:07;4.50;72.20
4739;DHT22;2383;48.632;10.156;2023-04-06T09:17:22;4.60;71.70
4739;DHT22;2383;48.632;10.156;2023-04-06T09:21:25;4.70;71.60
4739;DHT22;2383;48.632;10.156;2023-04-06T09:25:27;4.70;73.10
4739;DHT22;2383;48.632;10.156;2023-04-06T09:29:29;4.90;72.80
4739;DHT22;2383;48.632;10.156;2023-04-06T09:33:31;5.20;70.10
4739;DHT22;2383;48.632;10.156;2023-04-06T09:37:34;5.20;71.80
4739;DHT22;2383;48.632;10.156;2023-04-06T09:41:37;5.40;71.60
4739;DHT22;2383;48.632;10.156;2023-04-06T09:45:39;5.50;71.20
4739;DHT22;2383;48.632;10.156;2023-04-06T09:49:41;5.90;68.70
4739;DHT22;2383;48.632;10.156;2023-04-06T09:53:45;6.00;66.70
4739;DHT22;2383;48.632;10.156;2023-04-06T09:58:05;5.70;63.80
4739;DHT22;2383;48.632;10.156;2023-04-06T10:02:35;5.20;65.40
4739;DHT22;2383;48.632;10.156;2023-04-06T10:06:35;5.70;64.30
4739;DHT22;2383;48.632;10.156;2023-04-06T10:10:37;5.10;68.60
4739;DHT22;2383;48.632;10.156;2023-04-06T10:14:40;5.80;66.30
4739;DHT22;2383;48.632;10.156;2023-04-06T10:18:50;6.30;66.90
4739;DHT22;2383;48.632;10.156;2023-04-06T10:23:06;6.50;65.90
4739;DHT22;2383;48.632;10.156;2023-04-06T10:27:10;6.80;66.30
4739;DHT22;2383;48.632;10.156;2023-04-06T10:31:13;6.30;66.70
4739;DHT22;2383;48.632;10.156;2023-04-06T10:35:15;6.60;65.50
4739;DHT22;2383;48.632;10.156;2023-04-06T10:39:24;7.10;64.30
4739;DHT22;2383;48.632;10.156;2023-04-06T10:43:33;7.50;62.60
4739;DHT22;2383;48.632;10.156;2023-04-06T10:47:40;7.10;64.60
4739;DHT22;2383;48.632;10.156;2023-04-06T10:51:42;7.50;63.60
4739;DHT22;2383;48.632;10.156;2023-04-06T10:55:45;7.40;63.10
4739;DHT22;2383;48.632;10.156;2023-04-06T10:59:47;7.40;63.10
4739;DHT22;2383;48.632;10.156;2023-04-06T11:03:53;7.20;63.60
4739;DHT22;2383;48.632;10.156;2023-04-06T11:07:56;7.10;63.20
4739;DHT22;2383;48.632;10.156;2023-04-06T11:11:58;7.00;64.30
4739;DHT22;2383;48.632;10.156;2023-04-06T11:16:00;7.10;65.70
4739;DHT22;2383;48.632;10.156;2023-04-06T11:20:04;7.40;64.30
4739;DHT22;2383;48.632;10.156;2023-04-06T11:28:09;7.30;64.20
4739;DHT22;2383;48.632;10.156;2023-04-06T11:32:12;7.90;65.30
4739;DHT22;2383;48.632;10.156;2023-04-06T11:36:21;7.80;64.70
4739;DHT22;2383;48.632;10.156;2023-04-06T11:40:23;7.90;64.90
4739;DHT22;2383;48.632;10.156;2023-04-06T11:44:36;8.00;62.00
4739;DHT22;2383;48.632;10.156;2023-04-06T11:48:46;7.60;61.50
4739;DHT22;2383;48.632;10.156;2023-04-06T11:52:58;7.50;61.60
4739;DHT22;2383;48.632;10.156;2023-04-06T11:57:03;7.60;60.80
4739;DHT22;2383;48.632;10.156;2023-04-06T12:01:05;7.40;62.80
4739;DHT22;2383;48.632;10.156;2023-04-06T12:05:07;7.50;62.90
4739;DHT22;2383;48.632;10.156;2023-04-06T12:09:10;7.60;63.70
4739;DHT22;2383;48.632;10.156;2023-04-06T12:13:12;7.80;62.90
4739;DHT22;2383;48.632;10.156;2023-04-06T12:17:14;7.90;63.50
4739;DHT22;2383;48.632;10.156;2023-04-06T12:21:17;7.60;61.60
4739;DHT22;2383;48.632;10.156;2023-04-06T12:25:19;7.10;62.70
4739;DHT22;2383;48.632;10.156;2023-04-06T12:29:21;8.10;61.80
4739;DHT22;2383;48.632;10.156;2023-04-06T12:33:23;8.50;61.20
4739;DHT22;2383;48.632;10.156;2023-04-06T12:37:26;8.90;61.50
4739;DHT22;2383;48.632;10.156;2023-04-06T12:41:29;8.80;60.40
4739;DHT22;2383;48.632;10.156;2023-04-06T12:45:31;8.80;61.60
4739;DHT22;2383;48.632;10.156;2023-04-06T12:49:33;8.70;59.60
4739;DHT22;2383;48.632;10.156;2023-04-06T12:53:36;8.30;61.20
4739;DHT22;2383;48.632;10.156;2023-04-06T12:57:38;8.70;59.50
4739;DHT22;2383;48.632;10.156;2023-04-06T13:01:40;8.30;61.20
4739;DHT22;2383;48.632;10.156;2023-04-06T13:05:46;8.60;59.00
4739;DHT22;2383;48.632;10.156;2023-04-06T13:09:48;8.60;60.70
4739;DHT22;2383;48.632;10.156;2023-04-06T13:13:51;8.70;61.20
4739;DHT22;2383;48.632;10.156;2023-04-06T13:17:53;8.60;60.70
4739;DHT22;2383;48.632;10.156;2023-04-06T13:21:57;8.80;60.50
4739;DHT22;2383;48.632;10.156;2023-04-06T13:26:01;8.70;59.40
4739;DHT22;2383;48.632;10.156;2023-04-06T13:30:05;9.20;57.90
4739;DHT22;2383;48.632;10.156;2023-04-06T13:34:07;9.30;58.40
4739;DHT22;2383;48.632;10.156;2023-04-06T13:38:09;9.70;58.40
4739;DHT22;2383;48.632;10.156;2023-04-06T13:42:11;9.70;59.40
4739;DHT22;2383;48.632;10.156;2023-04-06T13:46:13;9.20;59.10
4739;DHT22;2383;48.632;10.156;2023-04-06T13:50:15;8.60;58.80
4739;DHT22;2383;48.632;10.156;2023-04-06T13:54:17;9.30;59.90
4739;DHT22;2383;48.632;10.156;2023-04-06T13:58:19;7.90;58.80
4739;DHT22;2383;48.632;10.156;2023-04-06T14:02:21;7.70;58.60
4739;DHT22;2383;48.632;10.156;2023-04-06T14:06:29;7.30;57.70
4739;DHT22;2383;48.632;10.156;2023-04-06T14:10:37;8.30;58.60
4739;DHT22;2383;48.632;10.156;2023-04-06T14:14:39;9.30;57.70
4739;DHT22;2383;48.632;10.156;2023-04-06T14:18:41;9.40;59.60
4739;DHT22;2383;48.632;10.156;2023-04-06T14:22:44;9.50;55.90
4739;DHT22;2383;48.632;10.156;2023-04-06T14:26:46;9.60;56.90
4739;DHT22;2383;48.632;10.156;2023-04-06T14:30:48;9.70;56.00
4739;DHT22;2383;48.632;10.156;2023-04-06T14:34:50;9.80;54.90
4739;DHT22;2383;48.632;10.156;2023-04-06T14:38:52;9.80;54.60
4739;DHT22;2383;48.632;10.156;2023-04-06T14:42:54;9.60;55.80
4739;DHT22;2383;48.632;10.156;2023-04-06T14:46:58;9.40;58.30
4739;DHT22;2383;48.632;10.156;2023-04-06T14:51:00;9.60;56.60
4739;DHT22;2383;48.632;10.156;2023-04-06T14:55:02;9.40;55.50
4739;DHT22;2383;48.632;10.156;2023-04-06T14:59:06;9.40;56.50
4739;DHT22;2383;48.632;10.156;2023-04-06T15:03:08;9.50;55.00
4739;DHT22;2383;48.632;10.156;2023-04-06T15:07:10;9.40;55.80
4739;DHT22;2383;48.632;10.156;2023-04-06T15:11:12;9.10;56.60
4739;DHT22;2383;48.632;10.156;2023-04-06T15:15:15;9.10;56.70
4739;DHT22;2383;48.632;10.156;2023-04-06T15:19:17;9.60;56.30
4739;DHT22;2383;48.632;10.156;2023-04-06T15:23:19;9.70;56.90
4739;DHT22;2383;48.632;10.156;2023-04-06T15:27:21;9.80;57.30
4739;DHT22;2383;48.632;10.156;2023-04-06T15:31:23;9.70;56.60
4739;DHT22;2383;48.632;10.156;2023-04-06T15:35:38;10.00;57.80
4739;DHT22;2383;48.632;10.156;2023-04-06T15:39:41;9.70;57.20
4739;DHT22;2383;48.632;10.156;2023-04-06T15:43:44;9.80;57.40
4739;DHT22;2383;48.632;10.156;2023-04-06T15:47:47;9.70;57.70
4739;DHT22;2383;48.632;10.156;2023-04-06T15:51:50;9.80;58.40
4739;DHT22;2383;48.632;10.156;2023-04-06T15:56:03;9.90;57.90
4739;DHT22;2383;48.632;10.156;2023-04-06T16:00:06;9.40;59.20
4739;DHT22;2383;48.632;10.156;2023-04-06T16:04:09;9.50;58.70
4739;DHT22;2383;48.632;10.156;2023-04-06T16:08:12;9.10;58.50
4739;DHT22;2383;48.632;10.156;2023-04-06T16:12:18;9.60;57.60
4739;DHT22;2383;48.632;10.156;2023-04-06T16:16:20;9.70;55.00
4739;DHT22;2383;48.632;10.156;2023-04-06T16:20:22;9.80;55.60
4739;DHT22;2383;48.632;10.156;2023-04-06T16:24:24;9.80;55.20
4739;DHT22;2383;48.632;10.156;2023-04-06T16:28:27;9.80;55.80
4739;DHT22;2383;48.632;10.156;2023-04-06T16:32:29;9.90;55.20
4739;DHT22;2383;48.632;10.156;2023-04-06T16:36:31;10.00;56.30
4739;DHT22;2383;48.632;10.156;2023-04-06T16:40:34;9.70;56.60
4739;DHT22;2383;48.632;10.156;2023-04-06T16:44:36;9.70;57.50
4739;DHT22;2383;48.632;10.156;2023-04-06T16:48:38;9.70;58.40
4739;DHT22;2383;48.632;10.156;2023-04-06T16:52:40;9.60;59.40
4739;DHT22;2383;48.632;10.156;2023-04-06T16:56:43;9.60;60.30
4739;DHT22;2383;48.632;10.156;2023-04-06T17:00:45;9.70;60.70
4739;DHT22;2383;48.632;10.156;2023-04-06T17:04:47;9.70;60.90
4739;DHT22;2383;48.632;10.156;2023-04-06T17:08:49;9.70;60.70
4739;DHT22;2383;48.632;10.156;2023-04-06T17:12:51;9.70;61.70
4739;DHT22;2383;48.632;10.156;2023-04-06T17:16:55;9.60;58.70
4739;DHT22;2383;48.632;10.156;2023-04-06T17:20:57;9.60;60.70
4739;DHT22;2383;48.632;10.156;2023-04-06T17:25:00;9.50;62.30
4739;DHT22;2383;48.632;10.156;2023-04-06T17:29:06;9.60;62.90
4739;DHT22;2383;48.632;10.156;2023-04-06T17:33:08;9.60;63.90
4739;DHT22;2383;48.632;10.156;2023-04-06T17:37:10;9.50;63.00
4739;DHT22;2383;48.632;10.156;2023-04-06T17:41:13;9.50;62.40
4739;DHT22;2383;48.632;10.156;2023-04-06T17:45:15;9.50;61.90
4739;DHT22;2383;48.632;10.156;2023-04-06T17:49:17;9.30;61.00
4739;DHT22;2383;48.632;10.156;2023-04-06T17:53:19;9.40;62.00
4739;DHT22;2383;48.632;10.156;2023-04-06T17:57:22;9.30;64.00
4739;DHT22;2383;48.632;10.156;2023-04-06T18:01:24;9.20;65.90
4739;DHT22;2383;48.632;10.156;2023-04-06T18:05:26;9.20;64.30
4739;DHT22;2383;48.632;10.156;2023-04-06T18:09:31;9.10;66.20
4739;DHT22;2383;48.632;10.156;2023-04-06T18:13:33;9.00;65.40
4739;DHT22;2383;48.632;10.156;2023-04-06T18:17:40;8.80;64.50
4739;DHT22;2383;48.632;10.156;2023-04-06T18:21:42;8.80;65.40
4739;DHT22;2383;48.632;10.156;2023-04-06T18:25:44;8.70;67.10
4739;DHT22;2383;48.632;10.156;2023-04-06T18:29:46;8.60;67.30
4739;DHT22;2383;48.632;10.156;2023-04-06T18:33:48;8.70;67.10
4739;DHT22;2383;48.632;10.156;2023-04-06T18:37:53;8.50;69.30
4739;DHT22;2383;48.632;10.156;2023-04-06T18:41:55;8.50;70.10
4739;DHT22;2383;48.632;10.156;2023-04-06T18:45:57;8.40;71.80
4739;DHT22;2383;48.632;10.156;2023-04-06T18:50:01;8.20;69.70
4739;DHT22;2383;48.632;10.156;2023-04-06T18:54:03;8.20;70.70
4739;DHT22;2383;48.632;10.156;2023-04-06T18:58:05;8.10;70.00
4739;DHT22;2383;48.632;10.156;2023-04-06T19:02:07;8.10;70.20
4739;DHT22;2383;48.632;10.156;2023-04-06T19:06:09;8.10;69.10
4739;DHT22;2383;48.632;10.156;2023-04-06T19:10:11;7.90;68.50
4739;DHT22;2383;48.632;10.156;2023-04-06T19:14:14;8.00;69.40
4739;DHT22;2383;48.632;10.156;2023-04-06T19:18:17;7.90;68.70
4739;DHT22;2383;48.632;10.156;2023-04-06T19:22:19;7.80;68.80
4739;DHT22;2383;48.632;10.156;2023-04-06T19:26:22;7.80;70.10
4739;DHT22;2383;48.632;10.156;2023-04-06T19:30:25;7.50;71.50
4739;DHT22;2383;48.632;10.156;2023-04-06T19:34:27;7.40;72.10
4739;DHT22;2383;48.632;10.156;2023-04-06T19:38:29;7.50;72.40
4739;DHT22;2383;48.632;10.156;2023-04-06T19:42:35;7.50;73.90
4739;DHT22;2383;48.632;10.156;2023-04-06T19:46:37;7.40;75.10
4739;DHT22;2383;48.632;10.156;2023-04-06T19:50:40;7.30;75.40
4739;DHT22;2383;48.632;10.156;2023-04-06T19:54:42;7.30;75.30
4739;DHT22;2383;48.632;10.156;2023-04-06T19:58:47;7.00;75.20
4739;DHT22;2383;48.632;10.156;2023-04-06T20:02:49;7.00;75.70
4739;DHT22;2383;48.632;10.156;2023-04-06T20:06:51;7.20;76.10
4739;DHT22;2383;48.632;10.156;2023-04-06T20:11:00;7.00;74.40
4739;DHT22;2383;48.632;10.156;2023-04-06T20:15:03;7.00;73.50
4739;DHT22;2383;48.632;10.156;2023-04-06T20:19:05;7.10;73.00
4739;DHT22;2383;48.632;10.156;2023-04-06T20:23:07;7.10;73.20
4739;DHT22;2383;48.632;10.156;2023-04-06T20:27:09;6.90;73.40
4739;DHT22;2383;48.632;10.156;2023-04-06T20:31:11;6.90;74.70
4739;DHT22;2383;48.632;10.156;2023-04-06T20:35:13;6.80;73.70
4739;DHT22;2383;48.632;10.156;2023-04-06T20:39:15;6.10;74.20
4739;DHT22;2383;48.632;10.156;2023-04-06T20:43:17;6.30;73.40
4739;DHT22;2383;48.632;10.156;2023-04-06T20:47:21;6.50;73.50
4739;DHT22;2383;48.632;10.156;2023-04-06T20:51:23;6.70;72.50
4739;DHT22;2383;48.632;10.156;2023-04-06T20:55:26;6.60;73.60
4739;DHT22;2383;48.632;10.156;2023-04-06T20:59:28;6.50;75.40
4739;DHT22;2383;48.632;10.156;2023-04-06T21:03:30;6.50;74.00
4739;DHT22;2383;48.632;10.156;2023-04-06T21:07:32;6.50;74.00
4739;DHT22;2383;48.632;10.156;2023-04-06T21:11:34;6.70;74.50
4739;DHT22;2383;48.632;10.156;2023-04-06T21:15:36;6.70;72.80
4739;DHT22;2383;48.632;10.156;2023-04-06T21:19:39;6.70;73.30
4739;DHT22;2383;48.632;10.156;2023-04-06T21:23:41;6.80;73.50
4739;DHT22;2383;48.632;10.156;2023-04-06T21:27:43;6.70;74.20
4739;DHT22;2383;48.632;10.156;2023-04-06T21:31:44;6.80;74.50
4739;DHT22;2383;48.632;10.156;2023-04-06T21:35:47;6.50;75.40
4739;DHT22;2383;48.632;10.156;2023-04-06T21:39:49;6.60;75.90
4739;DHT22;2383;48.632;10.156;2023-04-06T21:43:51;6.60;76.00
4739;DHT22;2383;48.632;10.156;2023-04-06T21:47:53;5.90;73.90
4739;DHT22;2383;48.632;10.156;2023-04-06T21:51:55;5.30;74.50
4739;DHT22;2383;48.632;10.156;2023-04-06T21:55:57;6.10;74.00
4739;DHT22;2383;48.632;10.156;2023-04-06T21:59:59;6.20;73.60
4739;DHT22;2383;48.632;10.156;2023-04-06T22:04:01;6.40;74.50
4739;DHT22;2383;48.632;10.156;2023-04-06T22:08:03;6.50;74.50
4739;DHT22;2383;48.632;10.156;2023-04-06T22:12:05;6.10;74.90
4739;DHT22;2383;48.632;10.156;2023-04-06T22:16:07;6.10;74.30
4739;DHT22;2383;48.632;10.156;2023-04-06T22:20:09;6.10;74.40
4739;DHT22;2383;48.632;10.156;2023-04-06T22:24:12;6.20;74.10
4739;DHT22;2383;48.632;10.156;2023-04-06T22:28:14;6.30;74.50
4739;DHT22;2383;48.632;10.156;2023-04-06T22:32:16;6.60;75.60
4739;DHT22;2383;48.632;10.156;2023-04-06T22:36:18;6.60;76.40
4739;DHT22;2383;48.632;10.156;2023-04-06T22:40:20;6.50;76.40
4739;DHT22;2383;48.632;10.156;2023-04-06T22:44:22;6.20;76.90
4739;DHT22;2383;48.632;10.156;2023-04-06T22:48:24;6.10;76.70
4739;DHT22;2383;48.632;10.156;2023-04-06T22:52:26;6.10;77.30
4739;DHT22;2383;48.632;10.156;2023-04-06T22:56:28;6.10;75.00
4739;DHT22;2383;48.632;10.156;2023-04-06T23:00:30;6.40;71.60
4739;DHT22;2383;48.632;10.156;2023-04-06T23:04:32;6.60;70.80
4739;DHT22;2383;48.632;10.156;2023-04-06T23:08:34;6.80;70.30
4739;DHT22;2383;48.632;10.156;2023-04-06T23:12:36;6.80;71.20
4739;DHT22;2383;48.632;10.156;2023-04-06T23:16:38;6.90;70.60
4739;DHT22;2383;48.632;10.156;2023-04-06T23:20:40;6.80;70.30
4739;DHT22;2383;48.632;10.156;2023-04-06T23:24:42;6.60;71.30
4739;DHT22;2383;48.632;10.156;2023-04-06T23:28:44;6.80;71.00
4739;DHT22;2383;48.632;10.156;2023-04-06T23:32:46;7.00;71.40
4739;DHT22;2383;48.632;10.156;2023-04-06T23:36:48;7.10;71.30
4739;DHT22;2383;48.632;10.156;2023-04-06T23:40:50;7.20;71.00
4739;DHT22;2383;48.632;10.156;2023-04-06T23:44:52;7.50;71.00
4739;DHT22;2383;48.632;10.156;2023-04-06T23:48:54;7.10;71.50
4739;DHT22;2383;48.632;10.156;2023-04-06T23:52:56;6.80;71.90
4739;DHT22;2383;48.632;10.156;2023-04-06T23:57:00;6.90;73.20
